Time;durP1;ratioP1;P1;durP2;ratioP2;P2;SDS_P1;SDS_P2;PMS_P1;PMS_P2;Temp;Humidity;BMP_temperature;BMP_pressure;BME280_temperature;BME280_humidity;BME280_pressure;Samples;Min_cycle;Max_cycle;Signal;HPM_P1;HPM_P2
2022/09/16 00:00:23;;;;;;;2.10;0.45;;;;;;;18.84;58.79;101014.28;5091727;28;20110;-70
2022/09/16 00:02:51;;;;;;;3.17;0.75;;;;;;;18.21;59.91;101014.84;5076358;28;20047;-71
2022/09/16 00:05:17;;;;;;;8.07;1.05;;;;;;;18.63;59.79;101015.44;5073411;28;20040;-70
2022/09/16 00:07:42;;;;;;;4.63;0.70;;;;;;;18.78;59.31;101004.50;5074147;28;20489;-70
2022/09/16 00:10:08;;;;;;;4.65;0.80;;;;;;;18.83;59.49;101015.38;5055848;28;20036;-72
2022/09/16 00:12:33;;;;;;;8.88;1.25;;;;;;;18.90;59.54;101021.38;5073827;28;20050;-70
2022/09/16 00:14:58;;;;;;;5.85;0.77;;;;;;;18.93;59.70;101009.09;5073442;28;20040;-72
2022/09/16 00:17:24;;;;;;;3.03;0.85;;;;;;;18.83;59.76;101014.56;5082287;28;20523;-71
2022/09/16 00:19:49;;;;;;;9.70;1.13;;;;;;;18.99;59.57;101016.16;5056335;28;20032;-71
2022/09/16 00:22:16;;;;;;;4.30;0.82;;;;;;;19.01;59.43;101017.50;5073840;28;20445;-72
2022/09/16 00:24:41;;;;;;;9.73;0.98;;;;;;;19.16;59.13;101020.19;5073537;28;20025;-71
2022/09/16 00:27:07;;;;;;;13.25;1.10;;;;;;;19.18;58.99;101018.00;5073525;28;20063;-71
2022/09/16 00:29:33;;;;;;;3.72;0.90;;;;;;;19.29;59.44;101024.25;5073290;28;20139;-72
2022/09/16 00:31:59;;;;;;;4.05;1.00;;;;;;;18.85;60.23;101015.13;5077219;28;20044;-71
2022/09/16 00:34:25;;;;;;;7.60;0.95;;;;;;;18.92;59.79;101021.09;5073758;28;20492;-69
2022/09/16 00:36:50;;;;;;;5.75;1.23;;;;;;;18.69;60.87;101025.19;5073397;28;20083;-72
2022/09/16 00:39:16;;;;;;;7.03;1.20;;;;;;;18.94;60.27;101024.34;5073373;28;20043;-73
2022/09/16 00:41:41;;;;;;;6.35;1.05;;;;;;;19.03;60.10;101026.22;5073531;28;20113;-72
2022/09/16 00:44:45;;;;;;;6.70;1.20;;;;;;;18.98;60.13;101030.88;5071907;28;20101;-71
2022/09/16 00:47:12;;;;;;;7.00;2.33;;;;;;;19.05;59.48;101025.94;5072988;28;20037;-75
2022/09/16 00:49:37;;;;;;;6.90;1.25;;;;;;;19.16;59.97;101025.63;5073652;28;20064;-72
2022/09/16 00:52:05;;;;;;;9.25;1.25;;;;;;;19.25;59.54;101029.44;5092785;28;20101;-72
2022/09/16 00:54:34;;;;;;;8.45;1.45;;;;;;;19.25;59.84;101031.34;5092958;28;20028;-74
2022/09/16 00:57:03;;;;;;;8.48;2.42;;;;;;;19.35;59.49;101030.50;5093635;28;20036;-71
2022/09/16 00:59:31;;;;;;;5.72;1.17;;;;;;;19.30;59.50;101031.34;5093601;28;20119;-71
2022/09/16 01:02:02;;;;;;;8.60;1.35;;;;;;;18.84;60.69;101024.38;5088984;28;20021;-73
2022/09/16 01:04:34;;;;;;;9.07;1.83;;;;;;;18.83;60.95;101028.19;5073111;28;20036;-72
2022/09/16 01:07:01;;;;;;;5.68;1.20;;;;;;;18.87;60.52;101021.91;5072913;28;20048;-71
2022/09/16 01:09:28;;;;;;;13.43;1.77;;;;;;;18.52;61.39;101024.66;5072689;28;20051;-70
2022/09/16 01:11:53;;;;;;;11.68;2.20;;;;;;;18.41;62.39;101018.41;5072671;28;20046;-71
2022/09/16 01:17:32;;;;;;;9.15;2.95;;;;;;;18.52;61.77;101016.50;5072836;28;20562;-72
2022/09/16 01:20:16;;;;;;;10.75;2.00;;;;;;;18.53;61.65;101015.44;5072844;28;20017;-73
2022/09/16 01:23:06;;;;;;;8.40;1.58;;;;;;;18.61;61.69;101019.50;5072967;28;20104;-71
2022/09/16 01:26:09;;;;;;;10.25;1.75;;;;;;;18.72;61.24;101021.09;5072577;28;20098;-73
2022/09/16 01:28:56;;;;;;;9.27;1.65;;;;;;;18.62;61.47;101019.22;5072721;28;20076;-71
2022/09/16 01:31:39;;;;;;;8.52;1.27;;;;;;;18.54;61.63;101014.31;5075925;28;20051;-72
2022/09/16 01:34:15;;;;;;;10.90;1.63;;;;;;;18.86;60.45;101012.13;5092544;28;20039;-73
2022/09/16 01:36:55;;;;;;;6.20;2.38;;;;;;;18.87;60.43;101015.66;5092604;28;20089;-71
2022/09/16 01:39:37;;;;;;;4.20;1.27;;;;;;;18.79;60.02;101014.28;5092653;28;20028;-72
2022/09/16 01:42:03;;;;;;;6.03;1.45;;;;;;;18.61;61.52;101022.22;5092340;28;20533;-70
2022/09/16 01:44:56;;;;;;;6.80;1.30;;;;;;;18.48;61.27;101009.16;5092266;28;20127;-72
2022/09/16 01:47:35;;;;;;;9.98;1.25;;;;;;;18.81;60.41;101006.66;5092457;28;20047;-69
2022/09/16 01:50:27;;;;;;;4.00;1.17;;;;;;;18.74;60.18;101006.13;5092238;28;20157;-71
2022/09/16 01:53:11;;;;;;;9.75;1.65;;;;;;;18.63;60.62;101020.03;5092438;28;20036;-71
2022/09/16 01:55:44;;;;;;;4.47;1.00;;;;;;;18.51;60.96;101014.88;5092311;28;20040;-71
2022/09/16 01:58:22;;;;;;;5.82;1.00;;;;;;;18.45;61.57;101018.69;5092139;28;20052;-70
2022/09/16 02:00:50;;;;;;;6.30;1.33;;;;;;;18.26;61.99;101004.78;5091732;28;20036;-72
2022/09/16 02:03:22;;;;;;;5.05;1.27;;;;;;;18.33;61.05;101002.63;5076576;28;20040;-73
2022/09/16 02:06:02;;;;;;;6.25;0.90;;;;;;;18.34;60.75;101006.13;5071616;28;20496;-71
2022/09/16 02:08:40;;;;;;;5.22;1.30;;;;;;;18.62;59.83;101005.59;5071356;28;20037;-72
2022/09/16 02:11:10;;;;;;;4.82;0.90;;;;;;;18.53;60.33;101003.72;5071678;28;20028;-72
2022/09/16 02:13:41;;;;;;;5.68;1.00;;;;;;;18.25;60.88;101010.50;5072218;28;20041;-70
2022/09/16 02:16:15;;;;;;;4.45;0.70;;;;;;;18.55;60.33;101009.72;5079432;28;20024;-71
2022/09/16 02:18:48;;;;;;;7.80;0.90;;;;;;;18.47;60.30;101011.06;5071548;28;20064;-70
2022/09/16 02:21:15;;;;;;;8.48;0.90;;;;;;;18.40;60.25;101005.88;5071447;28;20443;-71
2022/09/16 02:23:47;;;;;;;3.35;0.68;;;;;;;18.06;60.79;101007.47;5071038;28;20044;-70
2022/09/16 02:26:18;;;;;;;3.33;0.90;;;;;;;18.00;61.48;101005.84;5071099;28;20033;-69
2022/09/16 02:28:47;;;;;;;0.80;0.60;;;;;;;18.04;61.13;101000.69;5071288;28;20047;-72
2022/09/16 02:31:13;;;;;;;6.32;0.80;;;;;;;18.44;59.60;100999.94;5073213;28;20524;-71
2022/09/16 02:33:50;;;;;;;5.60;2.17;;;;;;;18.48;59.51;101003.69;5072855;28;20397;-71
2022/09/16 02:36:20;;;;;;;7.32;1.13;;;;;;;18.15;60.77;101007.75;5070913;28;20040;-70
2022/09/16 02:38:52;;;;;;;5.55;0.68;;;;;;;18.24;60.05;101000.69;5071107;28;20029;-71
2022/09/16 02:41:17;;;;;;;5.38;0.65;;;;;;;18.45;59.52;100998.81;5070990;28;20032;-70
2022/09/16 02:43:44;;;;;;;5.43;0.65;;;;;;;18.55;59.38;100999.66;5065881;28;20028;-70
2022/09/16 02:46:28;;;;;;;3.15;1.20;;;;;;;18.30;60.19;101018.66;5090988;28;20059;-69
2022/09/16 02:49:21;;;;;;;12.60;1.30;;;;;;;18.54;59.84;101016.22;5090928;28;21914;-70
2022/09/16 02:52:08;;;;;;;5.05;0.80;;;;;;;18.70;59.58;101026.84;5072703;28;20074;-71
2022/09/16 02:54:51;;;;;;;2.75;0.45;;;;;;;18.78;59.58;101028.19;5090995;28;20054;-70
2022/09/16 02:57:17;;;;;;;4.38;0.77;;;;;;;18.62;59.75;101038.28;5090892;28;20117;-71
2022/09/16 02:59:44;;;;;;;4.30;0.80;;;;;;;18.95;59.10;101024.06;5091237;28;20424;-71
2022/09/16 03:02:10;;;;;;;4.47;0.75;;;;;;;18.94;59.00;101021.63;5090857;28;20145;-72
2022/09/16 03:04:35;;;;;;;6.07;1.35;;;;;;;18.80;58.78;101010.50;5091267;28;20028;-70
2022/09/16 03:07:04;;;;;;;4.13;1.27;;;;;;;18.78;58.97;101009.94;5090299;28;20043;-71
2022/09/16 03:09:33;;;;;;;7.60;1.17;;;;;;;18.63;58.97;101006.44;5090711;28;20077;-70
2022/09/16 03:12:18;;;;;;;9.63;1.05;;;;;;;18.80;58.46;101006.94;5090899;28;20097;-71
2022/09/16 03:15:08;;;;;;;7.15;1.38;;;;;;;19.03;58.06;101001.72;5090629;28;20044;-70
2022/09/16 03:17:56;;;;;;;4.68;0.90;;;;;;;18.96;58.64;101001.19;5083764;28;20055;-72
2022/09/16 03:21:03;;;;;;;2.35;0.80;;;;;;;19.09;58.02;100997.88;5090702;28;20055;-70
2022/09/16 03:24:03;;;;;;;3.60;0.90;;;;;;;18.84;58.80;100999.84;5090585;28;20042;-72
2022/09/16 03:26:51;;;;;;;3.38;0.80;;;;;;;18.46;59.32;100995.81;5090315;28;20400;-71
2022/09/16 03:29:36;;;;;;;8.55;1.10;;;;;;;18.56;59.80;100990.38;4989035;28;20425;-71
2022/09/16 03:32:11;;;;;;;4.68;1.00;;;;;;;18.46;59.52;100984.09;4980503;28;20051;-71
2022/09/16 03:34:54;;;;;;;4.32;1.08;;;;;;;18.74;59.30;100992.53;4970566;28;20062;-70
2022/09/16 03:37:22;;;;;;;4.45;1.05;;;;;;;18.80;59.35;100998.78;4969865;28;20656;-70
2022/09/16 03:39:54;;;;;;;4.72;1.10;;;;;;;18.13;60.76;100999.06;4970032;28;20039;-70
2022/09/16 03:42:21;;;;;;;3.70;0.98;;;;;;;18.35;60.92;100995.00;4971026;28;20194;-72
2022/09/16 03:44:46;;;;;;;2.92;0.93;;;;;;;18.55;59.69;101012.44;4988680;28;20050;-72
2022/09/16 03:47:12;;;;;;;5.97;1.10;;;;;;;18.63;60.05;101003.72;4996220;28;20042;-72
2022/09/16 03:49:38;;;;;;;7.28;0.93;;;;;;;18.83;59.62;101000.97;5008689;28;20116;-71
2022/09/16 03:52:07;;;;;;;6.78;1.58;;;;;;;18.73;59.31;101009.94;5008519;28;20617;-70
2022/09/16 03:54:33;;;;;;;3.20;0.95;;;;;;;18.78;59.24;101018.13;5007974;28;20050;-72
2022/09/16 03:56:59;;;;;;;6.25;1.02;;;;;;;18.83;58.83;101012.66;5008309;28;20042;-71
2022/09/16 03:59:26;;;;;;;6.93;1.33;;;;;;;18.62;59.52;101010.22;5008342;28;20752;-72
2022/09/16 04:01:51;;;;;;;6.40;1.45;;;;;;;18.43;59.91;100993.66;4996831;28;20046;-71
2022/09/16 04:04:17;;;;;;;5.95;0.95;;;;;;;18.25;60.85;101005.06;4988284;28;20145;-71
2022/09/16 04:06:42;;;;;;;10.52;1.23;;;;;;;17.90;62.60;100996.88;5047992;28;20032;-70
2022/09/16 04:09:11;;;;;;;6.13;1.08;;;;;;;18.13;61.68;101016.19;5090895;28;20036;-71
2022/09/16 04:11:36;;;;;;;5.78;1.00;;;;;;;18.34;61.22;101003.41;5091406;28;20376;-72
2022/09/16 04:14:03;;;;;;;9.80;1.08;;;;;;;18.66;60.52;101019.47;5091048;28;20069;-71
2022/09/16 04:16:29;;;;;;;4.07;1.20;;;;;;;18.58;60.62;101017.31;5087949;28;20048;-72
2022/09/16 04:18:55;;;;;;;5.25;1.10;;;;;;;18.92;59.41;100999.28;5072385;28;20401;-70
2022/09/16 04:21:21;;;;;;;7.15;1.10;;;;;;;18.54;60.02;100999.91;5075332;28;20055;-72
2022/09/16 04:23:47;;;;;;;5.88;1.40;;;;;;;18.13;61.40;101005.31;5075259;28;20039;-72
2022/09/16 04:26:13;;;;;;;2.28;1.00;;;;;;;18.29;60.98;101003.41;5075064;28;20036;-71
2022/09/16 04:28:38;;;;;;;7.00;0.95;;;;;;;18.60;60.32;100994.19;5075398;28;20074;-70
2022/09/16 04:31:06;;;;;;;10.27;1.10;;;;;;;18.64;59.50;100998.00;5074378;28;20052;-71
2022/09/16 04:33:34;;;;;;;3.85;1.98;;;;;;;18.50;60.12;101009.69;5073893;28;20041;-71
2022/09/16 04:36:03;;;;;;;4.78;1.52;;;;;;;18.71;59.54;101008.59;5074109;28;20029;-71
2022/09/16 04:38:29;;;;;;;7.45;1.02;;;;;;;18.65;59.72;101012.41;5076713;28;20045;-72
2022/09/16 04:41:22;;;;;;;5.28;1.30;;;;;;;18.37;59.74;101022.75;5082322;28;20023;-74
2022/09/16 04:43:52;;;;;;;10.20;2.10;;;;;;;18.65;59.41;101023.31;5079414;28;20140;-72
2022/09/16 04:46:18;;;;;;;4.03;1.13;;;;;;;18.62;59.16;101008.34;5081963;28;20508;-71
2022/09/16 04:48:47;;;;;;;8.75;1.38;;;;;;;18.22;60.17;101002.88;5081383;28;20054;-71
2022/09/16 04:51:13;;;;;;;6.30;0.65;;;;;;;18.26;59.50;100996.63;5083347;28;20399;-73
2022/09/16 04:53:39;;;;;;;7.85;1.17;;;;;;;18.25;59.31;100992.28;5082055;28;20033;-71
2022/09/16 04:56:07;;;;;;;5.10;0.70;;;;;;;18.40;58.83;100992.25;5081816;28;20116;-73
2022/09/16 04:58:33;;;;;;;4.07;1.73;;;;;;;18.48;58.21;100988.19;5084791;28;20472;-72
2022/09/16 05:01:12;;;;;;;5.88;0.93;;;;;;;18.44;58.29;100989.84;5081042;28;20043;-73
2022/09/16 05:03:46;;;;;;;8.15;1.20;;;;;;;18.46;57.69;100998.53;5084188;28;20086;-73
2022/09/16 05:06:15;;;;;;;4.85;1.00;;;;;;;18.22;59.03;101000.97;5080323;28;20037;-72
2022/09/16 05:08:40;;;;;;;6.15;1.02;;;;;;;18.33;58.80;100997.19;5073326;28;20071;-71
2022/09/16 05:11:17;;;;;;;3.70;0.73;;;;;;;18.26;58.62;100995.78;5089616;28;20036;-71
2022/09/16 05:13:43;;;;;;;7.82;1.08;;;;;;;18.34;58.12;101004.22;5080367;28;20044;-71
2022/09/16 05:16:11;;;;;;;4.57;1.17;;;;;;;18.37;58.48;101003.72;5091318;28;20043;-73
2022/09/16 05:18:38;;;;;;;8.23;1.55;;;;;;;18.27;59.02;101020.03;5093129;28;20058;-71
2022/09/16 05:21:06;;;;;;;5.25;1.00;;;;;;;17.82;59.29;101019.13;5092905;28;20050;-74
2022/09/16 05:23:32;;;;;;;8.95;2.20;;;;;;;17.52;61.04;101025.28;5093237;28;20048;-72
2022/09/16 05:26:06;;;;;;;4.32;0.77;;;;;;;17.90;59.30;101018.63;5092423;28;20032;-72
2022/09/16 05:28:33;;;;;;;3.10;0.70;;;;;;;17.85;59.25;101016.69;5084390;28;20040;-73
2022/09/16 05:31:12;;;;;;;6.47;1.00;;;;;;;18.30;58.41;101014.03;5081980;28;20044;-70
2022/09/16 05:33:38;;;;;;;3.08;0.85;;;;;;;18.53;57.77;101018.16;5084519;28;20036;-73
2022/09/16 05:36:10;;;;;;;3.88;0.70;;;;;;;18.26;57.45;101018.38;5089391;28;20490;-72
2022/09/16 05:38:35;;;;;;;5.57;0.93;;;;;;;18.45;58.15;101012.44;5084830;28;20542;-72
2022/09/16 05:41:02;;;;;;;6.20;1.20;;;;;;;18.57;57.24;101011.06;5092290;28;20052;-71
2022/09/16 05:43:28;;;;;;;5.15;0.93;;;;;;;18.50;58.05;101010.50;5092759;28;20050;-75
2022/09/16 05:45:54;;;;;;;2.40;0.73;;;;;;;18.50;57.93;101018.69;5092828;28;20392;-74
2022/09/16 05:48:21;;;;;;;7.63;1.23;;;;;;;18.45;58.19;101026.03;5092388;28;20058;-73
2022/09/16 05:51:03;;;;;;;4.57;1.35;;;;;;;17.86;59.71;101025.66;5092360;28;20047;-72
2022/09/16 05:53:30;;;;;;;8.25;1.88;;;;;;;17.74;60.63;101019.66;5092577;28;20040;-73
2022/09/16 05:56:03;;;;;;;11.35;2.38;;;;;;;17.80;59.58;101015.88;5070285;28;20089;-73
2022/09/16 05:58:30;;;;;;;6.47;1.17;;;;;;;17.93;59.93;101009.91;5092826;28;20444;-74
2022/09/16 06:00:59;;;;;;;7.63;1.30;;;;;;;17.98;58.54;101012.66;5092061;28;20044;-74
2022/09/16 06:03:26;;;;;;;7.60;0.95;;;;;;;18.30;58.81;100994.97;5084953;28;20043;-72
2022/09/16 06:05:51;;;;;;;5.60;1.02;;;;;;;18.14;59.06;101006.94;5074029;28;20645;-72
2022/09/16 06:08:17;;;;;;;8.95;1.02;;;;;;;18.22;59.32;101005.59;5088183;28;20043;-71
2022/09/16 06:10:42;;;;;;;7.90;1.15;;;;;;;18.13;58.60;101013.47;5082630;28;20392;-72
2022/09/16 06:13:08;;;;;;;8.18;1.02;;;;;;;18.08;58.80;101013.47;5076619;28;20633;-70
2022/09/16 06:15:34;;;;;;;7.93;1.27;;;;;;;17.92;60.23;101013.72;5077884;28;20061;-72
2022/09/16 06:18:02;;;;;;;5.90;1.73;;;;;;;18.00;59.63;101011.31;5079150;28;20028;-73
2022/09/16 06:20:27;;;;;;;10.23;1.50;;;;;;;17.99;59.59;101014.25;5077167;28;20043;-72
2022/09/16 06:22:53;;;;;;;11.52;1.63;;;;;;;17.65;60.71;101002.25;5073832;28;20400;-71
2022/09/16 06:25:18;;;;;;;13.20;2.08;;;;;;;17.90;60.00;101010.47;5073218;28;20029;-73
2022/09/16 06:27:44;;;;;;;6.28;1.25;;;;;;;18.02;59.93;101014.56;5076838;28;20103;-73
2022/09/16 06:30:09;;;;;;;12.35;1.55;;;;;;;17.68;60.91;101009.84;5072224;28;20044;-71
2022/09/16 06:32:35;;;;;;;6.88;1.27;;;;;;;18.06;59.41;101017.56;5073682;28;20058;-73
2022/09/16 06:35:02;;;;;;;8.40;1.10;;;;;;;18.34;59.05;101004.22;5081860;28;20024;-71
2022/09/16 06:37:27;;;;;;;4.78;1.20;;;;;;;18.23;58.95;101012.66;5074777;28;20036;-72
2022/09/16 06:39:52;;;;;;;12.10;1.77;;;;;;;18.46;58.79;101009.44;5074629;28;20043;-71
2022/09/16 06:42:18;;;;;;;3.00;0.90;;;;;;;18.27;58.99;101009.13;5081543;28;20066;-72
2022/09/16 06:44:43;;;;;;;4.28;1.73;;;;;;;18.45;58.55;101013.25;5086474;28;20051;-73
2022/09/16 06:47:09;;;;;;;6.90;1.80;;;;;;;18.48;57.87;101009.16;5057676;28;20106;-72
2022/09/16 06:49:34;;;;;;;4.10;1.05;;;;;;;18.06;58.85;101007.47;5086528;28;20024;-72
2022/09/16 06:51:59;;;;;;;11.52;1.70;;;;;;;18.54;57.54;101008.88;5051554;28;20047;-72
2022/09/16 06:54:25;;;;;;;10.13;1.65;;;;;;;18.77;56.94;101002.84;5058297;28;20044;-72
2022/09/16 06:56:50;;;;;;;8.55;0.90;;;;;;;18.19;58.75;101015.13;5079104;28;20062;-73
2022/09/16 06:59:16;;;;;;;6.10;1.52;;;;;;;18.39;57.96;101006.16;5075356;28;20029;-72
2022/09/16 07:01:41;;;;;;;7.72;1.20;;;;;;;18.79;57.65;101010.78;5070808;28;20407;-74
2022/09/16 07:04:14;;;;;;;15.68;3.47;;;;;;;19.09;56.56;101008.78;5084483;28;20032;-72
2022/09/16 07:06:40;;;;;;;11.43;1.50;;;;;;;18.54;57.63;101016.22;5089759;28;20503;-74
2022/09/16 07:09:06;;;;;;;9.55;1.88;;;;;;;18.82;57.73;101008.31;5071301;28;20028;-73
2022/09/16 07:11:31;;;;;;;8.65;1.45;;;;;;;18.42;57.81;101013.75;5089564;28;20112;-74
2022/09/16 07:13:58;;;;;;;8.50;2.03;;;;;;;18.68;57.81;101017.31;5077968;28;20079;-74
2022/09/16 07:16:25;;;;;;;19.20;2.00;;;;;;;18.43;58.73;101010.00;5080913;28;20031;-73
2022/09/16 07:18:55;;;;;;;6.07;1.35;;;;;;;18.31;57.92;101017.56;5090016;28;20191;-74
2022/09/16 07:21:24;;;;;;;4.47;0.57;;;;;;;18.03;59.33;101021.63;5083069;28;20111;-74
2022/09/16 07:23:50;;;;;;;9.00;1.15;;;;;;;18.15;59.01;101022.19;5069610;28;20037;-73
2022/09/16 07:26:19;;;;;;;8.15;0.82;;;;;;;18.51;57.97;101022.22;5069774;28;20082;-74
2022/09/16 07:28:45;;;;;;;8.13;1.23;;;;;;;18.86;57.53;101019.47;5089168;28;20115;-73
2022/09/16 07:31:14;;;;;;;4.72;0.90;;;;;;;18.15;60.17;101027.63;5089750;28;20043;-73
2022/09/16 07:33:42;;;;;;;7.85;1.23;;;;;;;18.98;56.42;101028.16;5069772;28;20083;-76
2022/09/16 07:36:10;;;;;;;4.97;0.80;;;;;;;18.93;56.13;101026.25;5051826;28;20086;-75
2022/09/16 07:38:36;;;;;;;4.70;0.98;;;;;;;18.76;55.43;101028.47;5086883;28;20032;-74
2022/09/16 07:41:10;;;;;;;6.05;1.48;;;;;;;19.00;54.30;101024.06;5082761;28;20060;-75
2022/09/16 07:43:36;;;;;;;3.88;1.02;;;;;;;19.11;54.17;101024.84;5062864;28;20063;-73
2022/09/16 07:46:02;;;;;;;12.20;1.27;;;;;;;19.47;53.76;101025.56;5071399;28;20309;-75
2022/09/16 07:48:30;;;;;;;5.47;0.73;;;;;;;18.93;53.96;101025.44;5079930;28;20038;-74
2022/09/16 07:51:01;;;;;;;9.18;1.10;;;;;;;19.13;54.45;101030.81;5069644;28;20450;-74
2022/09/16 07:53:28;;;;;;;7.13;1.08;;;;;;;18.62;55.93;101029.28;5073054;28;20040;-72
2022/09/16 07:55:54;;;;;;;4.30;1.00;;;;;;;19.44;54.57;101037.03;5088554;28;20064;-72
2022/09/16 07:58:20;;;;;;;11.45;2.03;;;;;;;19.36;54.60;101043.06;5085584;28;20052;-76
2022/09/16 08:00:48;;;;;;;4.03;1.15;;;;;;;18.72;55.78;101037.44;5078793;28;20056;-75
2022/09/16 08:03:14;;;;;;;8.32;1.27;;;;;;;18.57;56.39;101035.56;5079576;28;20032;-72
2022/09/16 08:05:40;;;;;;;11.90;1.25;;;;;;;18.34;57.44;101045.03;5062665;28;20032;-73
2022/09/16 08:08:05;;;;;;;12.98;1.90;;;;;;;18.76;55.95;101035.81;5085202;28;20031;-74
2022/09/16 08:10:31;;;;;;;9.98;1.27;;;;;;;18.92;56.21;101031.97;5081471;28;20253;-73
2022/09/16 08:12:56;;;;;;;9.90;1.42;;;;;;;18.44;56.56;101027.13;5078698;28;20036;-75
2022/09/16 08:15:22;;;;;;;5.38;1.10;;;;;;;19.26;56.14;101031.06;5077309;28;20516;-72
2022/09/16 08:17:47;;;;;;;2.50;0.95;;;;;;;18.89;56.24;101019.72;5079077;28;20025;-73
2022/09/16 08:20:13;;;;;;;8.52;1.02;;;;;;;19.11;55.29;101019.38;5076029;28;20036;-71
2022/09/16 08:22:38;;;;;;;6.80;0.90;;;;;;;19.35;53.38;101023.16;5082892;28;20028;-73
2022/09/16 08:25:04;;;;;;;11.50;1.17;;;;;;;18.97;53.79;101031.94;5081181;28;20554;-77
2022/09/16 08:27:29;;;;;;;6.47;0.77;;;;;;;18.95;54.12;101026.78;5074629;28;20039;-73
2022/09/16 08:29:55;;;;;;;2.78;0.68;;;;;;;19.56;52.36;101026.59;5075737;28;20361;-76
2022/09/16 08:32:20;;;;;;;5.75;1.05;;;;;;;19.87;51.98;101020.72;5076633;28;20097;-73
2022/09/16 08:34:46;;;;;;;6.03;0.88;;;;;;;19.53;52.38;101033.44;5069131;28;20040;-73
2022/09/16 08:37:11;;;;;;;7.65;1.15;;;;;;;19.44;52.77;101037.84;5093194;28;20048;-74
2022/09/16 08:39:37;;;;;;;6.63;0.98;;;;;;;19.91;53.21;101029.16;5060821;28;20496;-76
2022/09/16 08:42:41;;;;;;;6.00;1.08;;;;;;;19.56;53.49;101040.22;5062340;28;20036;-74
2022/09/16 08:45:25;;;;;;;5.50;0.90;;;;;;;20.05;53.89;101030.13;5088587;28;20047;-73
2022/09/16 08:48:07;;;;;;;12.02;1.58;;;;;;;19.87;52.90;101030.81;5059499;28;20064;-74
2022/09/16 08:50:45;;;;;;;7.22;1.23;;;;;;;19.42;54.08;101031.84;5058470;28;20067;-72
2022/09/16 08:53:29;;;;;;;2.35;0.63;;;;;;;19.37;53.92;101047.41;5084038;28;20073;-76
2022/09/16 08:55:55;;;;;;;5.05;1.17;;;;;;;19.38;52.84;101047.13;5088558;28;20028;-74
2022/09/16 08:58:44;;;;;;;4.45;0.80;;;;;;;19.64;50.53;101047.84;5084117;28;20418;-73
2022/09/16 09:01:34;;;;;;;4.82;1.50;;;;;;;19.15;52.34;101054.00;5088433;28;20578;-74
2022/09/16 09:04:02;;;;;;;4.43;1.10;;;;;;;19.51;51.90;101040.28;5088877;28;20032;-73
2022/09/16 09:06:53;;;;;;;6.40;0.63;;;;;;;19.10;53.08;101048.53;5076071;28;20036;-73
2022/09/16 09:09:29;;;;;;;9.55;1.17;;;;;;;19.35;52.67;101044.97;5077144;28;20482;-73
2022/09/16 09:12:03;;;;;;;9.35;0.90;;;;;;;19.95;50.88;101041.16;5087960;28;20105;-73
2022/09/16 09:14:40;;;;;;;7.05;1.13;;;;;;;19.82;51.67;101042.56;5072324;28;20037;-77
2022/09/16 09:17:14;;;;;;;6.65;1.00;;;;;;;19.50;52.08;101053.06;5087382;28;20047;-74
2022/09/16 09:19:39;;;;;;;6.85;1.10;;;;;;;20.03;51.38;101038.63;5074426;28;20474;-75
2022/09/16 09:22:24;;;;;;;6.88;1.05;;;;;;;20.20;50.94;101045.63;5085604;28;20127;-75
2022/09/16 09:25:20;;;;;;;8.13;0.70;;;;;;;20.01;52.51;101049.00;5082254;28;20036;-74
2022/09/16 09:28:16;;;;;;;10.35;1.30;;;;;;;20.66;51.31;101049.63;5076434;28;20122;-74
2022/09/16 09:30:52;;;;;;;9.75;0.82;;;;;;;20.81;50.61;101038.56;5076597;28;20398;-76
2022/09/16 09:33:50;;;;;;;4.90;1.25;;;;;;;20.85;51.07;101043.16;5063814;28;20508;-75
2022/09/16 09:36:47;;;;;;;5.78;0.85;;;;;;;20.70;52.26;101042.47;5092303;28;20032;-74
2022/09/16 09:39:36;;;;;;;14.80;1.80;;;;;;;20.69;51.32;101049.06;5081417;28;20526;-75
2022/09/16 09:42:15;;;;;;;11.50;1.30;;;;;;;18.81;53.42;101038.53;5077307;28;20048;-75
2022/09/16 09:44:58;;;;;;;8.43;1.15;;;;;;;19.16;52.57;101041.97;5087291;28;20450;-77
2022/09/16 09:47:31;;;;;;;7.57;1.25;;;;;;;19.53;52.55;101057.16;5074245;28;20043;-75
2022/09/16 09:50:10;;;;;;;7.50;1.50;;;;;;;18.62;52.24;101048.34;5088596;28;20043;-73
2022/09/16 09:52:47;;;;;;;7.78;1.52;;;;;;;18.02;54.51;101062.69;5092462;28;20026;-75
2022/09/16 09:55:18;;;;;;;8.73;1.67;;;;;;;18.62;53.04;101068.22;5057459;28;20040;-75
2022/09/16 09:58:13;;;;;;;9.02;1.92;;;;;;;19.09;51.85;101067.88;5074783;28;20060;-74
2022/09/16 10:00:38;;;;;;;8.73;1.40;;;;;;;19.03;51.22;101068.97;4989834;28;20043;-75
2022/09/16 10:03:10;;;;;;;12.07;1.70;;;;;;;19.22;51.70;101064.59;4989697;28;20088;-76
2022/09/16 10:05:36;;;;;;;4.05;0.90;;;;;;;19.20;50.66;101069.50;5008497;28;20041;-75
2022/09/16 10:08:11;;;;;;;11.10;2.03;;;;;;;19.55;49.58;101060.44;4996796;28;20669;-75
2022/09/16 10:10:45;;;;;;;5.20;2.08;;;;;;;20.42;48.98;101057.75;4994349;28;20040;-74
2022/09/16 10:13:12;;;;;;;13.15;2.00;;;;;;;19.73;49.19;101062.53;4986827;28;20042;-74
2022/09/16 10:15:38;;;;;;;3.97;1.20;;;;;;;19.91;49.33;101061.91;4995514;28;20537;-75
2022/09/16 10:18:13;;;;;;;12.10;1.20;;;;;;;19.14;51.11;101065.16;4989405;28;20046;-74
2022/09/16 10:20:42;;;;;;;9.40;1.00;;;;;;;19.41;50.24;101065.66;5007002;28;20041;-75
2022/09/16 10:23:12;;;;;;;11.60;1.35;;;;;;;19.17;51.06;101062.69;4985751;28;20042;-76
2022/09/16 10:25:56;;;;;;;6.90;1.23;;;;;;;19.44;51.11;101067.03;4994060;28;20046;-74
2022/09/16 10:28:25;;;;;;;4.03;1.20;;;;;;;19.40;49.19;101057.78;5005643;28;20046;-77
2022/09/16 10:30:57;;;;;;;5.10;1.20;;;;;;;19.50;49.57;101061.25;4985892;28;20042;-74
2022/09/16 10:33:40;;;;;;;4.57;0.82;;;;;;;19.19;48.72;101062.41;4989499;28;20046;-74
2022/09/16 10:36:08;;;;;;;7.45;0.93;;;;;;;19.72;48.08;101053.53;4993104;28;20053;-76
2022/09/16 10:38:42;;;;;;;4.68;1.08;;;;;;;19.19;49.65;101065.16;5047396;28;20108;-74
2022/09/16 10:41:14;;;;;;;8.82;1.40;;;;;;;20.26;47.57;101048.06;5054758;28;20414;-75
2022/09/16 10:43:48;;;;;;;8.50;1.52;;;;;;;20.41;47.76;101047.94;5053870;28;20025;-74
2022/09/16 10:46:15;;;;;;;14.10;2.33;;;;;;;20.88;48.33;101047.22;5061678;28;20221;-74
2022/09/16 10:48:42;;;;;;;9.40;1.63;;;;;;;20.67;47.79;101043.06;5041745;28;20039;-75
2022/09/16 10:51:22;;;;;;;5.85;1.00;;;;;;;20.96;48.13;101039.25;5066060;28;20048;-74
2022/09/16 10:53:55;;;;;;;10.77;1.60;;;;;;;20.94;47.99;101035.97;5045340;28;20038;-74
2022/09/16 10:56:24;;;;;;;13.90;2.40;;;;;;;20.55;47.11;101032.53;5047068;28;20397;-75
2022/09/16 10:59:08;;;;;;;10.55;1.45;;;;;;;21.23;47.22;101025.03;5061871;28;20028;-74
2022/09/16 11:01:58;;;;;;;15.75;1.75;;;;;;;21.37;47.60;101027.88;5045818;28;20033;-74
2022/09/16 11:04:29;;;;;;;9.03;3.10;;;;;;;21.19;47.18;101037.63;5063068;28;20041;-73
2022/09/16 11:07:30;;;;;;;13.52;2.20;;;;;;;19.79;51.07;101043.13;5063625;28;20095;-75
2022/09/16 11:10:02;;;;;;;;;;;;;;;20.10;50.71;101041.88;5055228;28;20132;-73
2022/09/16 11:12:45;;;;;;;9.93;1.23;;;;;;;20.39;50.99;101052.84;5054352;28;19955;-75
2022/09/16 11:15:10;;;;;;;4.70;1.05;;;;;;;20.75;50.35;101046.00;5045149;28;20045;-72
2022/09/16 11:17:36;;;;;;;4.38;0.93;;;;;;;19.95;50.82;101041.16;5023878;28;20492;-74
2022/09/16 11:20:19;;;;;;;3.28;0.93;;;;;;;19.86;51.60;101040.09;5059399;28;20119;-75
2022/09/16 11:23:07;;;;;;;5.45;1.38;;;;;;;20.01;52.04;101037.25;5047856;28;20106;-75
2022/09/16 11:25:39;;;;;;;9.48;1.42;;;;;;;20.46;51.32;101041.63;5053013;28;20131;-74
2022/09/16 11:28:26;;;;;;;4.93;1.83;;;;;;;20.59;51.21;101038.22;5054668;28;20029;-73
2022/09/16 11:31:03;;;;;;;4.20;1.02;;;;;;;21.21;48.13;101042.84;5063188;28;20119;-73
2022/09/16 11:33:58;;;;;;;11.07;1.25;;;;;;;20.75;47.76;101034.25;5045315;28;20047;-72
2022/09/16 11:36:44;;;;;;;10.93;1.90;;;;;;;21.08;45.43;101038.03;5047137;28;20272;-74
2022/09/16 11:39:30;;;;;;;16.77;2.08;;;;;;;20.97;45.80;101035.38;5052457;28;20029;-74
2022/09/16 11:42:18;;;;;;;10.18;1.25;;;;;;;22.17;44.41;101015.03;5056017;28;20037;-74
2022/09/16 11:45:20;;;;;;;10.93;1.35;;;;;;;21.80;45.32;101032.22;5057067;28;20119;-74
2022/09/16 11:48:27;;;;;;;12.27;1.50;;;;;;;21.78;45.07;101034.44;5060120;28;20037;-73
2022/09/16 11:51:06;;;;;;;7.78;1.63;;;;;;;21.95;45.10;101025.75;5065167;28;20053;-74